sensor_id;sensor_type;location;lat;lon;timestamp;P1;durP1;ratioP1;P2;durP2;ratioP2
6111;SDS011;3086;48.802;9.394;2023-11-22T12:28:41;6.77;;;5.70;;
6111;SDS011;3086;48.802;9.394;2023-11-22T12:32:06;6.30;;;5.53;;
6111;SDS011;3086;48.802;9.394;2023-11-22T12:35:30;5.63;;;4.90;;
6111;SDS011;3086;48.802;9.394;2023-11-22T12:39:02;5.73;;;5.13;;
6111;SDS011;3086;48.802;9.394;2023-11-22T12:42:32;6.33;;;5.70;;
6111;SDS011;3086;48.802;9.394;2023-11-22T12:46:02;6.00;;;5.27;;
6111;SDS011;3086;48.802;9.394;2023-11-22T12:49:26;7.30;;;5.77;;
6111;SDS011;3086;48.802;9.394;2023-11-22T12:52:48;6.43;;;5.30;;
6111;SDS011;3086;48.802;9.394;2023-11-22T12:56:09;6.40;;;5.47;;
6111;SDS011;3086;48.802;9.394;2023-11-22T12:59:31;5.60;;;5.00;;
6111;SDS011;3086;48.802;9.394;2023-11-22T13:02:54;5.60;;;5.07;;
6111;SDS011;3086;48.802;9.394;2023-11-22T13:06:25;5.77;;;5.27;;
6111;SDS011;3086;48.802;9.394;2023-11-22T13:09:46;6.30;;;5.70;;
6111;SDS011;3086;48.802;9.394;2023-11-22T13:13:08;7.70;;;5.70;;
6111;SDS011;3086;48.802;9.394;2023-11-22T13:16:29;5.73;;;5.23;;
6111;SDS011;3086;48.802;9.394;2023-11-22T13:19:53;6.10;;;5.17;;
6111;SDS011;3086;48.802;9.394;2023-11-22T13:23:15;6.17;;;5.57;;
6111;SDS011;3086;48.802;9.394;2023-11-22T13:26:37;6.63;;;6.00;;
6111;SDS011;3086;48.802;9.394;2023-11-22T13:29:59;6.23;;;5.60;;
6111;SDS011;3086;48.802;9.394;2023-11-22T13:33:20;8.93;;;5.50;;
6111;SDS011;3086;48.802;9.394;2023-11-22T13:36:43;7.40;;;6.10;;
6111;SDS011;3086;48.802;9.394;2023-11-22T13:40:05;6.17;;;5.23;;
6111;SDS011;3086;48.802;9.394;2023-11-22T13:43:32;5.60;;;5.10;;
6111;SDS011;3086;48.802;9.394;2023-11-22T13:46:55;7.70;;;6.30;;
6111;SDS011;3086;48.802;9.394;2023-11-22T13:50:25;6.97;;;5.60;;
6111;SDS011;3086;48.802;9.394;2023-11-22T13:57:25;6.60;;;5.90;;
6111;SDS011;3086;48.802;9.394;2023-11-22T14:00:47;5.87;;;5.33;;
6111;SDS011;3086;48.802;9.394;2023-11-22T14:04:15;7.20;;;6.40;;
6111;SDS011;3086;48.802;9.394;2023-11-22T14:07:37;6.70;;;5.80;;
6111;SDS011;3086;48.802;9.394;2023-11-22T14:11:01;6.67;;;5.97;;
6111;SDS011;3086;48.802;9.394;2023-11-22T14:14:23;7.27;;;6.27;;
6111;SDS011;3086;48.802;9.394;2023-11-22T14:17:45;6.63;;;5.93;;
6111;SDS011;3086;48.802;9.394;2023-11-22T14:21:09;6.87;;;5.87;;
6111;SDS011;3086;48.802;9.394;2023-11-22T14:24:31;6.97;;;5.83;;
6111;SDS011;3086;48.802;9.394;2023-11-22T14:27:58;6.27;;;5.63;;
6111;SDS011;3086;48.802;9.394;2023-11-22T14:31:20;8.47;;;5.87;;
6111;SDS011;3086;48.802;9.394;2023-11-22T14:34:42;7.03;;;5.77;;
6111;SDS011;3086;48.802;9.394;2023-11-22T14:38:04;6.10;;;5.50;;
6111;SDS011;3086;48.802;9.394;2023-11-22T14:41:27;7.60;;;6.23;;
6111;SDS011;3086;48.802;9.394;2023-11-22T14:44:53;6.93;;;6.10;;
6111;SDS011;3086;48.802;9.394;2023-11-22T14:48:15;7.47;;;6.00;;
6111;SDS011;3086;48.802;9.394;2023-11-22T14:51:40;8.03;;;6.67;;
6111;SDS011;3086;48.802;9.394;2023-11-22T14:55:06;7.70;;;6.53;;
6111;SDS011;3086;48.802;9.394;2023-11-22T14:58:31;7.83;;;5.90;;
6111;SDS011;3086;48.802;9.394;2023-11-22T15:01:56;6.33;;;5.73;;
6111;SDS011;3086;48.802;9.394;2023-11-22T15:05:20;6.90;;;6.20;;
6111;SDS011;3086;48.802;9.394;2023-11-22T15:08:42;7.73;;;6.40;;
6111;SDS011;3086;48.802;9.394;2023-11-22T15:12:07;9.30;;;6.63;;
6111;SDS011;3086;48.802;9.394;2023-11-22T15:15:29;7.00;;;6.27;;
6111;SDS011;3086;48.802;9.394;2023-11-22T15:18:52;6.73;;;5.87;;
6111;SDS011;3086;48.802;9.394;2023-11-22T15:22:16;6.57;;;5.73;;
6111;SDS011;3086;48.802;9.394;2023-11-22T15:25:38;7.63;;;6.37;;
6111;SDS011;3086;48.802;9.394;2023-11-22T15:29:09;6.30;;;5.70;;
6111;SDS011;3086;48.802;9.394;2023-11-22T15:33:51;7.00;;;5.77;;
6111;SDS011;3086;48.802;9.394;2023-11-22T15:36:53;8.83;;;7.53;;
6111;SDS011;3086;48.802;9.394;2023-11-22T15:40:15;7.00;;;6.33;;
6111;SDS011;3086;48.802;9.394;2023-11-22T15:43:40;6.87;;;5.80;;
6111;SDS011;3086;48.802;9.394;2023-11-22T15:47:02;7.50;;;5.60;;
6111;SDS011;3086;48.802;9.394;2023-11-22T15:50:25;6.27;;;5.63;;
6111;SDS011;3086;48.802;9.394;2023-11-22T15:53:49;7.77;;;5.93;;
6111;SDS011;3086;48.802;9.394;2023-11-22T15:57:10;6.17;;;5.57;;
6111;SDS011;3086;48.802;9.394;2023-11-22T16:00:32;6.43;;;5.70;;
6111;SDS011;3086;48.802;9.394;2023-11-22T16:07:46;6.13;;;5.53;;
6111;SDS011;3086;48.802;9.394;2023-11-22T16:11:09;6.83;;;6.13;;
6111;SDS011;3086;48.802;9.394;2023-11-22T16:14:31;6.60;;;5.67;;
6111;SDS011;3086;48.802;9.394;2023-11-22T16:17:53;9.27;;;6.40;;
6111;SDS011;3086;48.802;9.394;2023-11-22T16:21:17;7.70;;;6.70;;
6111;SDS011;3086;48.802;9.394;2023-11-22T16:24:39;8.60;;;7.80;;
6111;SDS011;3086;48.802;9.394;2023-11-22T16:28:03;7.20;;;6.27;;
6111;SDS011;3086;48.802;9.394;2023-11-22T16:31:24;6.27;;;5.53;;
6111;SDS011;3086;48.802;9.394;2023-11-22T16:34:46;6.60;;;6.00;;
6111;SDS011;3086;48.802;9.394;2023-11-22T16:38:07;6.70;;;6.00;;
6111;SDS011;3086;48.802;9.394;2023-11-22T16:41:29;9.47;;;6.77;;
6111;SDS011;3086;48.802;9.394;2023-11-22T16:44:52;8.17;;;6.17;;
6111;SDS011;3086;48.802;9.394;2023-11-22T16:48:13;9.67;;;8.20;;
6111;SDS011;3086;48.802;9.394;2023-11-22T16:51:36;6.90;;;6.20;;
6111;SDS011;3086;48.802;9.394;2023-11-22T16:54:57;6.43;;;5.63;;
6111;SDS011;3086;48.802;9.394;2023-11-22T16:58:19;8.50;;;7.33;;
6111;SDS011;3086;48.802;9.394;2023-11-22T17:01:43;9.83;;;8.20;;
6111;SDS011;3086;48.802;9.394;2023-11-22T17:05:04;6.57;;;5.60;;
6111;SDS011;3086;48.802;9.394;2023-11-22T17:08:27;7.00;;;6.30;;
6111;SDS011;3086;48.802;9.394;2023-11-22T17:11:48;8.17;;;7.30;;
6111;SDS011;3086;48.802;9.394;2023-11-22T17:15:10;10.00;;;7.87;;
6111;SDS011;3086;48.802;9.394;2023-11-22T17:18:33;9.73;;;7.50;;
6111;SDS011;3086;48.802;9.394;2023-11-22T17:21:55;9.30;;;7.57;;
6111;SDS011;3086;48.802;9.394;2023-11-22T17:25:16;8.13;;;7.23;;
6111;SDS011;3086;48.802;9.394;2023-11-22T17:28:39;7.30;;;6.53;;
6111;SDS011;3086;48.802;9.394;2023-11-22T17:32:01;10.77;;;7.50;;
6111;SDS011;3086;48.802;9.394;2023-11-22T17:35:24;7.47;;;6.73;;
6111;SDS011;3086;48.802;9.394;2023-11-22T17:38:45;6.80;;;6.17;;
6111;SDS011;3086;48.802;9.394;2023-11-22T17:42:07;6.90;;;6.20;;
6111;SDS011;3086;48.802;9.394;2023-11-22T17:45:28;6.80;;;6.20;;
6111;SDS011;3086;48.802;9.394;2023-11-22T17:48:50;7.97;;;6.27;;
6111;SDS011;3086;48.802;9.394;2023-11-22T17:52:13;7.30;;;6.60;;
6111;SDS011;3086;48.802;9.394;2023-11-22T17:55:34;10.30;;;9.30;;
6111;SDS011;3086;48.802;9.394;2023-11-22T17:58:56;8.00;;;7.20;;
6111;SDS011;3086;48.802;9.394;2023-11-22T18:02:18;10.00;;;8.70;;
6111;SDS011;3086;48.802;9.394;2023-11-22T18:05:39;9.07;;;8.27;;
6111;SDS011;3086;48.802;9.394;2023-11-22T18:09:06;10.30;;;8.53;;
6111;SDS011;3086;48.802;9.394;2023-11-22T18:12:30;7.93;;;7.00;;
6111;SDS011;3086;48.802;9.394;2023-11-22T18:15:52;7.27;;;6.47;;
6111;SDS011;3086;48.802;9.394;2023-11-22T18:19:14;7.53;;;6.73;;
6111;SDS011;3086;48.802;9.394;2023-11-22T18:22:36;7.63;;;6.80;;
6111;SDS011;3086;48.802;9.394;2023-11-22T18:25:58;8.40;;;7.40;;
6111;SDS011;3086;48.802;9.394;2023-11-22T18:29:21;9.10;;;7.60;;
6111;SDS011;3086;48.802;9.394;2023-11-22T18:32:43;11.70;;;7.80;;
6111;SDS011;3086;48.802;9.394;2023-11-22T18:36:05;8.17;;;7.00;;
6111;SDS011;3086;48.802;9.394;2023-11-22T18:39:27;10.63;;;7.27;;
6111;SDS011;3086;48.802;9.394;2023-11-22T18:42:50;20.80;;;11.10;;
6111;SDS011;3086;48.802;9.394;2023-11-22T18:46:12;9.23;;;8.03;;
6111;SDS011;3086;48.802;9.394;2023-11-22T18:49:33;8.20;;;6.63;;
6111;SDS011;3086;48.802;9.394;2023-11-22T18:52:55;8.10;;;7.10;;
6111;SDS011;3086;48.802;9.394;2023-11-22T18:56:17;8.23;;;6.97;;
6111;SDS011;3086;48.802;9.394;2023-11-22T18:59:42;9.73;;;8.07;;
6111;SDS011;3086;48.802;9.394;2023-11-22T19:03:06;14.60;;;10.13;;
6111;SDS011;3086;48.802;9.394;2023-11-22T19:06:27;10.77;;;8.33;;
6111;SDS011;3086;48.802;9.394;2023-11-22T19:09:49;11.83;;;8.57;;
6111;SDS011;3086;48.802;9.394;2023-11-22T19:13:10;10.70;;;7.90;;
6111;SDS011;3086;48.802;9.394;2023-11-22T19:16:33;9.30;;;7.77;;
6111;SDS011;3086;48.802;9.394;2023-11-22T19:19:55;8.90;;;7.70;;
6111;SDS011;3086;48.802;9.394;2023-11-22T19:23:17;9.37;;;7.63;;
6111;SDS011;3086;48.802;9.394;2023-11-22T19:26:39;11.07;;;8.67;;
6111;SDS011;3086;48.802;9.394;2023-11-22T19:30:01;10.87;;;8.23;;
6111;SDS011;3086;48.802;9.394;2023-11-22T19:33:25;13.97;;;10.50;;
6111;SDS011;3086;48.802;9.394;2023-11-22T19:36:47;10.27;;;9.17;;
6111;SDS011;3086;48.802;9.394;2023-11-22T19:40:09;13.03;;;10.53;;
6111;SDS011;3086;48.802;9.394;2023-11-22T19:43:31;10.10;;;8.37;;
6111;SDS011;3086;48.802;9.394;2023-11-22T19:46:56;11.60;;;9.80;;
6111;SDS011;3086;48.802;9.394;2023-11-22T19:50:19;10.33;;;9.03;;
6111;SDS011;3086;48.802;9.394;2023-11-22T19:53:43;10.60;;;9.50;;
6111;SDS011;3086;48.802;9.394;2023-11-22T19:57:05;11.50;;;10.13;;
6111;SDS011;3086;48.802;9.394;2023-11-22T20:00:26;12.83;;;10.73;;
6111;SDS011;3086;48.802;9.394;2023-11-22T20:03:48;11.57;;;10.37;;
6111;SDS011;3086;48.802;9.394;2023-11-22T20:11:04;12.83;;;11.27;;
6111;SDS011;3086;48.802;9.394;2023-11-22T20:14:36;13.00;;;9.73;;
6111;SDS011;3086;48.802;9.394;2023-11-22T20:18:04;12.37;;;9.80;;
6111;SDS011;3086;48.802;9.394;2023-11-22T20:21:31;10.83;;;9.37;;
6111;SDS011;3086;48.802;9.394;2023-11-22T20:28:46;9.87;;;8.73;;
6111;SDS011;3086;48.802;9.394;2023-11-22T20:32:12;14.47;;;10.73;;
6111;SDS011;3086;48.802;9.394;2023-11-22T20:39:39;10.90;;;9.07;;
6111;SDS011;3086;48.802;9.394;2023-11-22T20:43:05;12.30;;;10.13;;
6111;SDS011;3086;48.802;9.394;2023-11-22T20:46:26;10.30;;;9.13;;
6111;SDS011;3086;48.802;9.394;2023-11-22T20:49:48;9.77;;;8.77;;
6111;SDS011;3086;48.802;9.394;2023-11-22T20:53:09;10.70;;;9.53;;
6111;SDS011;3086;48.802;9.394;2023-11-22T20:56:33;11.30;;;8.57;;
6111;SDS011;3086;48.802;9.394;2023-11-22T20:59:57;10.60;;;9.10;;
6111;SDS011;3086;48.802;9.394;2023-11-22T21:03:18;12.13;;;10.10;;
6111;SDS011;3086;48.802;9.394;2023-11-22T21:06:40;14.17;;;11.17;;
6111;SDS011;3086;48.802;9.394;2023-11-22T21:10:02;11.53;;;10.33;;
6111;SDS011;3086;48.802;9.394;2023-11-22T21:13:24;10.73;;;8.20;;
6111;SDS011;3086;48.802;9.394;2023-11-22T21:16:47;13.27;;;11.57;;
6111;SDS011;3086;48.802;9.394;2023-11-22T21:20:10;10.80;;;8.83;;
6111;SDS011;3086;48.802;9.394;2023-11-22T21:23:32;10.83;;;9.47;;
6111;SDS011;3086;48.802;9.394;2023-11-22T21:26:53;10.60;;;9.50;;
6111;SDS011;3086;48.802;9.394;2023-11-22T21:30:15;9.70;;;8.77;;
6111;SDS011;3086;48.802;9.394;2023-11-22T21:33:39;11.87;;;9.63;;
6111;SDS011;3086;48.802;9.394;2023-11-22T21:37:03;10.20;;;9.10;;
6111;SDS011;3086;48.802;9.394;2023-11-22T21:40:39;10.80;;;8.93;;
6111;SDS011;3086;48.802;9.394;2023-11-22T21:44:02;12.60;;;11.27;;
6111;SDS011;3086;48.802;9.394;2023-11-22T21:47:23;12.80;;;10.90;;
6111;SDS011;3086;48.802;9.394;2023-11-22T21:50:46;10.23;;;8.83;;
6111;SDS011;3086;48.802;9.394;2023-11-22T21:54:09;15.10;;;9.23;;
6111;SDS011;3086;48.802;9.394;2023-11-22T21:57:31;10.17;;;9.03;;
6111;SDS011;3086;48.802;9.394;2023-11-22T22:00:53;11.03;;;9.47;;
6111;SDS011;3086;48.802;9.394;2023-11-22T22:04:15;14.40;;;12.90;;
6111;SDS011;3086;48.802;9.394;2023-11-22T22:07:38;11.93;;;10.00;;
6111;SDS011;3086;48.802;9.394;2023-11-22T22:11:00;11.10;;;9.17;;
6111;SDS011;3086;48.802;9.394;2023-11-22T22:14:22;21.67;;;14.63;;
6111;SDS011;3086;48.802;9.394;2023-11-22T22:17:45;10.53;;;9.43;;
6111;SDS011;3086;48.802;9.394;2023-11-22T22:21:06;10.60;;;9.50;;
6111;SDS011;3086;48.802;9.394;2023-11-22T22:24:29;12.83;;;9.63;;
6111;SDS011;3086;48.802;9.394;2023-11-22T22:27:51;12.27;;;10.17;;
6111;SDS011;3086;48.802;9.394;2023-11-22T22:31:12;14.53;;;11.93;;
6111;SDS011;3086;48.802;9.394;2023-11-22T22:34:34;13.80;;;11.33;;
6111;SDS011;3086;48.802;9.394;2023-11-22T22:37:56;20.67;;;16.17;;
6111;SDS011;3086;48.802;9.394;2023-11-22T22:41:19;15.07;;;12.37;;
6111;SDS011;3086;48.802;9.394;2023-11-22T22:44:42;13.23;;;11.83;;
6111;SDS011;3086;48.802;9.394;2023-11-22T22:48:04;15.77;;;12.63;;
6111;SDS011;3086;48.802;9.394;2023-11-22T22:51:26;15.47;;;13.80;;
6111;SDS011;3086;48.802;9.394;2023-11-22T22:54:48;13.03;;;10.90;;
6111;SDS011;3086;48.802;9.394;2023-11-22T23:02:35;14.53;;;11.37;;
6111;SDS011;3086;48.802;9.394;2023-11-22T23:06:02;13.13;;;11.07;;
6111;SDS011;3086;48.802;9.394;2023-11-22T23:09:28;12.57;;;10.63;;
6111;SDS011;3086;48.802;9.394;2023-11-22T23:17:29;14.13;;;11.43;;
6111;SDS011;3086;48.802;9.394;2023-11-22T23:30:21;13.47;;;10.47;;
